sensor_id;sensor_type;location;lat;lon;timestamp;P1;durP1;ratioP1;P2;durP2;ratioP2
71969;SDS011;59838;52.152;5.436;2023-04-02T00:02:55;12.77;;;6.13;;
71969;SDS011;59838;52.152;5.436;2023-04-02T00:08:00;16.85;;;5.50;;
71969;SDS011;59838;52.152;5.436;2023-04-02T00:10:36;11.23;;;5.43;;
71969;SDS011;59838;52.152;5.436;2023-04-02T00:13:16;9.23;;;4.85;;
71969;SDS011;59838;52.152;5.436;2023-04-02T00:15:48;8.05;;;4.60;;
71969;SDS011;59838;52.152;5.436;2023-04-02T00:18:18;9.25;;;6.00;;
71969;SDS011;59838;52.152;5.436;2023-04-02T00:20:48;8.98;;;4.43;;
71969;SDS011;59838;52.152;5.436;2023-04-02T00:23:18;6.43;;;4.17;;
71969;SDS011;59838;52.152;5.436;2023-04-02T00:25:45;9.43;;;4.55;;
71969;SDS011;59838;52.152;5.436;2023-04-02T00:28:13;9.38;;;5.05;;
71969;SDS011;59838;52.152;5.436;2023-04-02T00:30:57;10.68;;;5.57;;
71969;SDS011;59838;52.152;5.436;2023-04-02T00:33:25;8.55;;;4.95;;
71969;SDS011;59838;52.152;5.436;2023-04-02T00:35:55;10.50;;;5.13;;
71969;SDS011;59838;52.152;5.436;2023-04-02T00:38:31;9.43;;;5.38;;
71969;SDS011;59838;52.152;5.436;2023-04-02T00:41:00;12.23;;;4.88;;
71969;SDS011;59838;52.152;5.436;2023-04-02T00:43:30;8.00;;;5.15;;
71969;SDS011;59838;52.152;5.436;2023-04-02T00:46:02;12.00;;;5.57;;
71969;SDS011;59838;52.152;5.436;2023-04-02T00:48:41;10.47;;;5.93;;
71969;SDS011;59838;52.152;5.436;2023-04-02T00:51:30;7.60;;;4.53;;
71969;SDS011;59838;52.152;5.436;2023-04-02T00:54:01;13.82;;;6.47;;
71969;SDS011;59838;52.152;5.436;2023-04-02T00:56:31;14.73;;;6.43;;
71969;SDS011;59838;52.152;5.436;2023-04-02T00:59:03;7.45;;;5.05;;
71969;SDS011;59838;52.152;5.436;2023-04-02T01:01:35;10.43;;;5.40;;
71969;SDS011;59838;52.152;5.436;2023-04-02T01:04:03;10.60;;;5.32;;
71969;SDS011;59838;52.152;5.436;2023-04-02T01:06:31;9.68;;;5.05;;
71969;SDS011;59838;52.152;5.436;2023-04-02T01:09:04;13.70;;;5.28;;
71969;SDS011;59838;52.152;5.436;2023-04-02T01:14:32;9.70;;;5.10;;
71969;SDS011;59838;52.152;5.436;2023-04-02T01:26:12;7.55;;;5.60;;
71969;SDS011;59838;52.152;5.436;2023-04-02T01:28:54;9.80;;;5.63;;
71969;SDS011;59838;52.152;5.436;2023-04-02T01:31:39;10.13;;;4.03;;
71969;SDS011;59838;52.152;5.436;2023-04-02T01:34:08;8.38;;;4.10;;
71969;SDS011;59838;52.152;5.436;2023-04-02T01:36:40;9.00;;;5.50;;
71969;SDS011;59838;52.152;5.436;2023-04-02T01:39:18;10.07;;;5.65;;
71969;SDS011;59838;52.152;5.436;2023-04-02T01:41:58;7.17;;;4.43;;
71969;SDS011;59838;52.152;5.436;2023-04-02T01:47:16;8.15;;;4.32;;
71969;SDS011;59838;52.152;5.436;2023-04-02T01:49:45;6.45;;;4.00;;
71969;SDS011;59838;52.152;5.436;2023-04-02T01:52:15;8.02;;;5.40;;
71969;SDS011;59838;52.152;5.436;2023-04-02T01:54:45;9.87;;;4.87;;
71969;SDS011;59838;52.152;5.436;2023-04-02T01:57:12;8.05;;;4.25;;
71969;SDS011;59838;52.152;5.436;2023-04-02T01:59:39;9.95;;;5.43;;
71969;SDS011;59838;52.152;5.436;2023-04-02T02:02:08;13.05;;;3.65;;
71969;SDS011;59838;52.152;5.436;2023-04-02T02:04:38;9.65;;;4.30;;
71969;SDS011;59838;52.152;5.436;2023-04-02T02:07:10;12.63;;;5.53;;
71969;SDS011;59838;52.152;5.436;2023-04-02T02:09:40;15.02;;;4.05;;
71969;SDS011;59838;52.152;5.436;2023-04-02T02:12:08;10.77;;;3.83;;
71969;SDS011;59838;52.152;5.436;2023-04-02T02:14:39;7.55;;;3.90;;
71969;SDS011;59838;52.152;5.436;2023-04-02T02:17:13;10.55;;;4.88;;
71969;SDS011;59838;52.152;5.436;2023-04-02T02:19:44;10.70;;;4.10;;
71969;SDS011;59838;52.152;5.436;2023-04-02T02:22:26;9.77;;;4.72;;
71969;SDS011;59838;52.152;5.436;2023-04-02T02:25:03;7.57;;;3.72;;
71969;SDS011;59838;52.152;5.436;2023-04-02T02:31:08;6.88;;;3.10;;
71969;SDS011;59838;52.152;5.436;2023-04-02T02:33:21;11.67;;;3.57;;
71969;SDS011;59838;52.152;5.436;2023-04-02T02:35:57;9.10;;;3.40;;
71969;SDS011;59838;52.152;5.436;2023-04-02T02:38:36;9.43;;;4.75;;
71969;SDS011;59838;52.152;5.436;2023-04-02T02:43:58;7.68;;;3.38;;
71969;SDS011;59838;52.152;5.436;2023-04-02T02:46:28;10.00;;;4.17;;
71969;SDS011;59838;52.152;5.436;2023-04-02T02:48:57;9.85;;;3.92;;
71969;SDS011;59838;52.152;5.436;2023-04-02T02:51:29;7.60;;;4.70;;
71969;SDS011;59838;52.152;5.436;2023-04-02T02:54:06;8.82;;;3.22;;
71969;SDS011;59838;52.152;5.436;2023-04-02T02:56:33;10.35;;;5.53;;
71969;SDS011;59838;52.152;5.436;2023-04-02T02:59:05;5.83;;;4.03;;
71969;SDS011;59838;52.152;5.436;2023-04-02T03:01:33;10.27;;;4.95;;
71969;SDS011;59838;52.152;5.436;2023-04-02T03:04:01;5.63;;;2.85;;
71969;SDS011;59838;52.152;5.436;2023-04-02T03:06:28;8.95;;;3.85;;
71969;SDS011;59838;52.152;5.436;2023-04-02T03:14:43;9.77;;;5.50;;
71969;SDS011;59838;52.152;5.436;2023-04-02T03:17:22;8.60;;;5.25;;
71969;SDS011;59838;52.152;5.436;2023-04-02T03:22:52;11.88;;;5.47;;
71969;SDS011;59838;52.152;5.436;2023-04-02T03:25:40;4.80;;;3.97;;
71969;SDS011;59838;52.152;5.436;2023-04-02T03:28:15;7.22;;;4.85;;
71969;SDS011;59838;52.152;5.436;2023-04-02T03:30:49;8.68;;;4.10;;
71969;SDS011;59838;52.152;5.436;2023-04-02T03:33:23;9.57;;;3.63;;
71969;SDS011;59838;52.152;5.436;2023-04-02T03:36:03;9.63;;;5.07;;
71969;SDS011;59838;52.152;5.436;2023-04-02T03:38:45;8.63;;;4.30;;
71969;SDS011;59838;52.152;5.436;2023-04-02T03:41:18;8.18;;;3.90;;
71969;SDS011;59838;52.152;5.436;2023-04-02T03:43:53;5.05;;;3.67;;
71969;SDS011;59838;52.152;5.436;2023-04-02T03:46:30;7.07;;;3.63;;
71969;SDS011;59838;52.152;5.436;2023-04-02T03:49:05;8.18;;;4.53;;
71969;SDS011;59838;52.152;5.436;2023-04-02T03:51:49;7.13;;;4.00;;
71969;SDS011;59838;52.152;5.436;2023-04-02T03:54:20;5.28;;;3.90;;
71969;SDS011;59838;52.152;5.436;2023-04-02T03:56:47;7.43;;;3.65;;
71969;SDS011;59838;52.152;5.436;2023-04-02T04:02:00;6.63;;;3.60;;
71969;SDS011;59838;52.152;5.436;2023-04-02T04:04:38;6.03;;;3.43;;
71969;SDS011;59838;52.152;5.436;2023-04-02T04:07:08;7.80;;;3.88;;
71969;SDS011;59838;52.152;5.436;2023-04-02T04:09:41;5.28;;;3.30;;
71969;SDS011;59838;52.152;5.436;2023-04-02T04:15:02;7.43;;;3.05;;
71969;SDS011;59838;52.152;5.436;2023-04-02T04:17:33;6.57;;;3.87;;
71969;SDS011;59838;52.152;5.436;2023-04-02T04:23:09;9.18;;;3.97;;
71969;SDS011;59838;52.152;5.436;2023-04-02T04:25:45;4.25;;;3.60;;
71969;SDS011;59838;52.152;5.436;2023-04-02T04:28:22;8.50;;;4.18;;
71969;SDS011;59838;52.152;5.436;2023-04-02T04:30:59;5.07;;;3.50;;
71969;SDS011;59838;52.152;5.436;2023-04-02T04:33:30;5.85;;;3.20;;
71969;SDS011;59838;52.152;5.436;2023-04-02T04:36:05;5.22;;;3.22;;
71969;SDS011;59838;52.152;5.436;2023-04-02T04:38:46;9.15;;;3.10;;
71969;SDS011;59838;52.152;5.436;2023-04-02T04:41:22;4.18;;;3.15;;
71969;SDS011;59838;52.152;5.436;2023-04-02T04:43:54;6.10;;;2.77;;
71969;SDS011;59838;52.152;5.436;2023-04-02T04:49:12;5.30;;;2.42;;
71969;SDS011;59838;52.152;5.436;2023-04-02T04:51:44;3.38;;;2.30;;
71969;SDS011;59838;52.152;5.436;2023-04-02T04:54:17;9.80;;;2.45;;
71969;SDS011;59838;52.152;5.436;2023-04-02T04:56:46;4.63;;;2.23;;
71969;SDS011;59838;52.152;5.436;2023-04-02T04:59:28;3.28;;;2.25;;
71969;SDS011;59838;52.152;5.436;2023-04-02T05:02:04;4.93;;;2.25;;
71969;SDS011;59838;52.152;5.436;2023-04-02T05:04:38;5.05;;;2.05;;
71969;SDS011;59838;52.152;5.436;2023-04-02T05:07:13;4.03;;;1.77;;
71969;SDS011;59838;52.152;5.436;2023-04-02T05:10:29;5.40;;;2.57;;
71969;SDS011;59838;52.152;5.436;2023-04-02T05:12:41;3.60;;;1.83;;
71969;SDS011;59838;52.152;5.436;2023-04-02T05:15:15;2.05;;;0.75;;
71969;SDS011;59838;52.152;5.436;2023-04-02T05:23:25;2.70;;;0.80;;
71969;SDS011;59838;52.152;5.436;2023-04-02T05:25:57;5.35;;;0.90;;
71969;SDS011;59838;52.152;5.436;2023-04-02T05:28:33;4.18;;;1.10;;
71969;SDS011;59838;52.152;5.436;2023-04-02T05:31:07;4.00;;;1.13;;
71969;SDS011;59838;52.152;5.436;2023-04-02T05:33:37;4.80;;;1.33;;
71969;SDS011;59838;52.152;5.436;2023-04-02T05:36:08;5.57;;;1.27;;
71969;SDS011;59838;52.152;5.436;2023-04-02T05:38:38;6.65;;;1.50;;
71969;SDS011;59838;52.152;5.436;2023-04-02T05:41:23;7.07;;;1.30;;
71969;SDS011;59838;52.152;5.436;2023-04-02T05:43:58;4.00;;;0.85;;
71969;SDS011;59838;52.152;5.436;2023-04-02T05:46:27;3.95;;;1.38;;
71969;SDS011;59838;52.152;5.436;2023-04-02T05:48:58;1.93;;;1.00;;
71969;SDS011;59838;52.152;5.436;2023-04-02T05:51:30;6.65;;;0.85;;
71969;SDS011;59838;52.152;5.436;2023-04-02T05:54:04;4.72;;;0.90;;
71969;SDS011;59838;52.152;5.436;2023-04-02T05:56:41;4.85;;;1.25;;
71969;SDS011;59838;52.152;5.436;2023-04-02T05:59:18;6.85;;;0.90;;
71969;SDS011;59838;52.152;5.436;2023-04-02T06:02:02;2.13;;;0.87;;
71969;SDS011;59838;52.152;5.436;2023-04-02T06:04:49;4.30;;;0.98;;
71969;SDS011;59838;52.152;5.436;2023-04-02T06:07:44;1.95;;;0.73;;
71969;SDS011;59838;52.152;5.436;2023-04-02T06:10:35;5.88;;;1.00;;
71969;SDS011;59838;52.152;5.436;2023-04-02T06:13:12;3.42;;;0.70;;
71969;SDS011;59838;52.152;5.436;2023-04-02T06:15:43;1.80;;;0.87;;
71969;SDS011;59838;52.152;5.436;2023-04-02T06:18:22;4.40;;;0.90;;
71969;SDS011;59838;52.152;5.436;2023-04-02T06:20:51;3.75;;;1.70;;
71969;SDS011;59838;52.152;5.436;2023-04-02T06:23:26;1.95;;;1.00;;
71969;SDS011;59838;52.152;5.436;2023-04-02T06:26:03;1.73;;;0.80;;
71969;SDS011;59838;52.152;5.436;2023-04-02T06:31:10;2.83;;;1.30;;
71969;SDS011;59838;52.152;5.436;2023-04-02T06:33:51;2.13;;;1.13;;
71969;SDS011;59838;52.152;5.436;2023-04-02T06:36:20;6.82;;;1.63;;
71969;SDS011;59838;52.152;5.436;2023-04-02T06:38:47;4.18;;;1.23;;
71969;SDS011;59838;52.152;5.436;2023-04-02T06:41:22;3.10;;;1.40;;
71969;SDS011;59838;52.152;5.436;2023-04-02T06:43:50;4.18;;;1.15;;
71969;SDS011;59838;52.152;5.436;2023-04-02T06:46:24;4.47;;;2.28;;
71969;SDS011;59838;52.152;5.436;2023-04-02T06:52:04;6.22;;;1.83;;
71969;SDS011;59838;52.152;5.436;2023-04-02T06:54:39;6.83;;;1.97;;
71969;SDS011;59838;52.152;5.436;2023-04-02T06:57:05;5.95;;;2.15;;
71969;SDS011;59838;52.152;5.436;2023-04-02T06:59:32;14.20;;;2.42;;
71969;SDS011;59838;52.152;5.436;2023-04-02T07:04:57;7.80;;;2.13;;
71969;SDS011;59838;52.152;5.436;2023-04-02T07:07:27;3.10;;;1.90;;
71969;SDS011;59838;52.152;5.436;2023-04-02T07:09:54;7.38;;;2.65;;
71969;SDS011;59838;52.152;5.436;2023-04-02T07:12:22;4.63;;;2.47;;
71969;SDS011;59838;52.152;5.436;2023-04-02T07:14:50;7.10;;;2.35;;
71969;SDS011;59838;52.152;5.436;2023-04-02T07:17:17;4.63;;;1.95;;
71969;SDS011;59838;52.152;5.436;2023-04-02T07:19:45;5.57;;;2.73;;
71969;SDS011;59838;52.152;5.436;2023-04-02T07:22:15;6.32;;;1.50;;
71969;SDS011;59838;52.152;5.436;2023-04-02T07:24:45;8.35;;;3.53;;
71969;SDS011;59838;52.152;5.436;2023-04-02T07:27:13;2.70;;;1.92;;
71969;SDS011;59838;52.152;5.436;2023-04-02T07:29:40;4.85;;;2.13;;
71969;SDS011;59838;52.152;5.436;2023-04-02T07:32:10;2.47;;;1.47;;
71969;SDS011;59838;52.152;5.436;2023-04-02T07:34:38;6.07;;;3.00;;
71969;SDS011;59838;52.152;5.436;2023-04-02T07:37:06;5.32;;;2.30;;
71969;SDS011;59838;52.152;5.436;2023-04-02T07:39:33;4.82;;;2.60;;
71969;SDS011;59838;52.152;5.436;2023-04-02T07:42:03;3.22;;;1.98;;
71969;SDS011;59838;52.152;5.436;2023-04-02T07:44:29;6.87;;;1.73;;
71969;SDS011;59838;52.152;5.436;2023-04-02T07:46:56;6.10;;;2.78;;
71969;SDS011;59838;52.152;5.436;2023-04-02T07:49:23;3.97;;;2.13;;
71969;SDS011;59838;52.152;5.436;2023-04-02T07:51:50;5.88;;;2.10;;
71969;SDS011;59838;52.152;5.436;2023-04-02T07:54:17;5.10;;;1.92;;
71969;SDS011;59838;52.152;5.436;2023-04-02T07:56:43;4.43;;;2.03;;
71969;SDS011;59838;52.152;5.436;2023-04-02T07:59:10;4.57;;;2.13;;
71969;SDS011;59838;52.152;5.436;2023-04-02T08:01:36;3.03;;;2.03;;
71969;SDS011;59838;52.152;5.436;2023-04-02T08:04:03;3.35;;;1.98;;
71969;SDS011;59838;52.152;5.436;2023-04-02T08:06:30;3.97;;;2.03;;
71969;SDS011;59838;52.152;5.436;2023-04-02T08:08:57;2.63;;;1.77;;
71969;SDS011;59838;52.152;5.436;2023-04-02T08:11:24;4.40;;;2.50;;
71969;SDS011;59838;52.152;5.436;2023-04-02T08:13:51;2.83;;;2.13;;
71969;SDS011;59838;52.152;5.436;2023-04-02T08:16:17;4.15;;;2.55;;
71969;SDS011;59838;52.152;5.436;2023-04-02T08:18:44;4.93;;;2.20;;
71969;SDS011;59838;52.152;5.436;2023-04-02T08:21:12;5.60;;;2.20;;
71969;SDS011;59838;52.152;5.436;2023-04-02T08:23:41;4.72;;;1.65;;
71969;SDS011;59838;52.152;5.436;2023-04-02T08:26:08;4.70;;;2.40;;
71969;SDS011;59838;52.152;5.436;2023-04-02T08:28:34;4.82;;;2.17;;
71969;SDS011;59838;52.152;5.436;2023-04-02T08:31:01;3.83;;;2.33;;
71969;SDS011;59838;52.152;5.436;2023-04-02T08:33:29;3.47;;;2.20;;
71969;SDS011;59838;52.152;5.436;2023-04-02T08:35:56;3.33;;;2.28;;
71969;SDS011;59838;52.152;5.436;2023-04-02T08:38:23;4.13;;;2.20;;
71969;SDS011;59838;52.152;5.436;2023-04-02T08:40:51;3.67;;;2.53;;
71969;SDS011;59838;52.152;5.436;2023-04-02T08:48:56;3.15;;;1.73;;
71969;SDS011;59838;52.152;5.436;2023-04-02T08:51:26;4.05;;;2.08;;
71969;SDS011;59838;52.152;5.436;2023-04-02T08:53:59;6.65;;;1.85;;
71969;SDS011;59838;52.152;5.436;2023-04-02T08:56:32;2.75;;;1.95;;
71969;SDS011;59838;52.152;5.436;2023-04-02T08:59:14;5.80;;;1.50;;
71969;SDS011;59838;52.152;5.436;2023-04-02T09:01:51;3.33;;;1.85;;
71969;SDS011;59838;52.152;5.436;2023-04-02T09:04:47;2.25;;;1.42;;
71969;SDS011;59838;52.152;5.436;2023-04-02T09:07:14;2.17;;;1.55;;
71969;SDS011;59838;52.152;5.436;2023-04-02T09:09:42;5.03;;;1.40;;
71969;SDS011;59838;52.152;5.436;2023-04-02T09:12:24;3.33;;;1.13;;
71969;SDS011;59838;52.152;5.436;2023-04-02T09:15:03;4.82;;;1.95;;
71969;SDS011;59838;52.152;5.436;2023-04-02T09:17:55;4.15;;;1.33;;
71969;SDS011;59838;52.152;5.436;2023-04-02T09:20:26;3.20;;;0.90;;
71969;SDS011;59838;52.152;5.436;2023-04-02T09:22:53;3.72;;;0.80;;
71969;SDS011;59838;52.152;5.436;2023-04-02T09:25:22;1.33;;;0.63;;
71969;SDS011;59838;52.152;5.436;2023-04-02T09:27:55;3.20;;;0.80;;
71969;SDS011;59838;52.152;5.436;2023-04-02T09:30:46;2.38;;;0.60;;
71969;SDS011;59838;52.152;5.436;2023-04-02T09:36:16;4.38;;;1.20;;
71969;SDS011;59838;52.152;5.436;2023-04-02T09:38:57;2.50;;;0.73;;
71969;SDS011;59838;52.152;5.436;2023-04-02T09:41:26;1.98;;;0.82;;
71969;SDS011;59838;52.152;5.436;2023-04-02T09:44:11;1.75;;;0.60;;
71969;SDS011;59838;52.152;5.436;2023-04-02T09:46:45;2.13;;;0.90;;
71969;SDS011;59838;52.152;5.436;2023-04-02T09:49:19;2.80;;;0.80;;
71969;SDS011;59838;52.152;5.436;2023-04-02T09:55:24;1.35;;;0.60;;
71969;SDS011;59838;52.152;5.436;2023-04-02T09:57:49;1.30;;;0.50;;
71969;SDS011;59838;52.152;5.436;2023-04-02T10:00:24;2.08;;;0.85;;
71969;SDS011;59838;52.152;5.436;2023-04-02T10:05:48;2.43;;;0.43;;
71969;SDS011;59838;52.152;5.436;2023-04-02T10:08:32;0.98;;;0.30;;
71969;SDS011;59838;52.152;5.436;2023-04-02T10:11:02;2.45;;;0.70;;
71969;SDS011;59838;52.152;5.436;2023-04-02T10:21:38;2.65;;;0.50;;
71969;SDS011;59838;52.152;5.436;2023-04-02T10:24:14;1.70;;;0.43;;
71969;SDS011;59838;52.152;5.436;2023-04-02T10:26:56;2.20;;;0.75;;
71969;SDS011;59838;52.152;5.436;2023-04-02T10:29:52;2.22;;;0.80;;
71969;SDS011;59838;52.152;5.436;2023-04-02T10:35:01;5.75;;;0.70;;
71969;SDS011;59838;52.152;5.436;2023-04-02T10:40:05;0.85;;;0.40;;
71969;SDS011;59838;52.152;5.436;2023-04-02T10:42:43;3.00;;;0.63;;
71969;SDS011;59838;52.152;5.436;2023-04-02T10:50:27;2.50;;;0.93;;
71969;SDS011;59838;52.152;5.436;2023-04-02T10:53:10;1.98;;;0.80;;
71969;SDS011;59838;52.152;5.436;2023-04-02T10:55:42;3.50;;;0.73;;
71969;SDS011;59838;52.152;5.436;2023-04-02T10:58:22;1.40;;;0.70;;
71969;SDS011;59838;52.152;5.436;2023-04-02T11:00:51;6.35;;;1.00;;
71969;SDS011;59838;52.152;5.436;2023-04-02T11:03:35;2.55;;;0.75;;
71969;SDS011;59838;52.152;5.436;2023-04-02T11:06:16;2.85;;;0.88;;
71969;SDS011;59838;52.152;5.436;2023-04-02T11:08:55;5.68;;;1.00;;
71969;SDS011;59838;52.152;5.436;2023-04-02T11:11:27;4.00;;;0.60;;
71969;SDS011;59838;52.152;5.436;2023-04-02T11:17:01;2.28;;;1.00;;
71969;SDS011;59838;52.152;5.436;2023-04-02T11:19:29;3.97;;;0.77;;
71969;SDS011;59838;52.152;5.436;2023-04-02T11:22:03;2.92;;;0.80;;
71969;SDS011;59838;52.152;5.436;2023-04-02T11:24:50;1.43;;;0.60;;
71969;SDS011;59838;52.152;5.436;2023-04-02T11:27:30;4.53;;;1.42;;
71969;SDS011;59838;52.152;5.436;2023-04-02T11:30:03;2.05;;;0.68;;
71969;SDS011;59838;52.152;5.436;2023-04-02T11:32:45;1.85;;;0.60;;
71969;SDS011;59838;52.152;5.436;2023-04-02T11:37:58;1.90;;;0.50;;
71969;SDS011;59838;52.152;5.436;2023-04-02T11:40:46;3.72;;;0.80;;
71969;SDS011;59838;52.152;5.436;2023-04-02T11:45:59;2.13;;;0.32;;
71969;SDS011;59838;52.152;5.436;2023-04-02T11:48:41;2.95;;;0.65;;
71969;SDS011;59838;52.152;5.436;2023-04-02T11:51:54;1.93;;;0.60;;
71969;SDS011;59838;52.152;5.436;2023-04-02T11:53:58;3.65;;;0.65;;
71969;SDS011;59838;52.152;5.436;2023-04-02T12:02:03;2.75;;;1.00;;
71969;SDS011;59838;52.152;5.436;2023-04-02T12:04:43;1.70;;;0.87;;
71969;SDS011;59838;52.152;5.436;2023-04-02T12:10:18;1.25;;;0.70;;
71969;SDS011;59838;52.152;5.436;2023-04-02T12:12:47;1.77;;;0.80;;
71969;SDS011;59838;52.152;5.436;2023-04-02T12:18:01;3.43;;;0.80;;
71969;SDS011;59838;52.152;5.436;2023-04-02T12:20:31;4.00;;;0.60;;
71969;SDS011;59838;52.152;5.436;2023-04-02T12:22:58;2.22;;;0.80;;
71969;SDS011;59838;52.152;5.436;2023-04-02T12:25:32;2.75;;;0.70;;
71969;SDS011;59838;52.152;5.436;2023-04-02T12:30:35;1.43;;;0.87;;
71969;SDS011;59838;52.152;5.436;2023-04-02T12:36:05;2.85;;;0.60;;
71969;SDS011;59838;52.152;5.436;2023-04-02T12:38:53;2.10;;;0.60;;
71969;SDS011;59838;52.152;5.436;2023-04-02T12:41:26;4.88;;;1.00;;
71969;SDS011;59838;52.152;5.436;2023-04-02T12:43:59;1.97;;;0.67;;
71969;SDS011;59838;52.152;5.436;2023-04-02T12:46:28;4.15;;;0.90;;
71969;SDS011;59838;52.152;5.436;2023-04-02T12:49:06;2.13;;;0.95;;
71969;SDS011;59838;52.152;5.436;2023-04-02T12:51:42;6.32;;;1.08;;
71969;SDS011;59838;52.152;5.436;2023-04-02T12:54:12;3.65;;;0.60;;
71969;SDS011;59838;52.152;5.436;2023-04-02T12:56:42;1.27;;;0.60;;
71969;SDS011;59838;52.152;5.436;2023-04-02T12:59:29;2.95;;;0.60;;
71969;SDS011;59838;52.152;5.436;2023-04-02T13:01:57;2.88;;;0.60;;
71969;SDS011;59838;52.152;5.436;2023-04-02T13:04:26;1.92;;;0.50;;
71969;SDS011;59838;52.152;5.436;2023-04-02T13:06:52;1.48;;;0.60;;
71969;SDS011;59838;52.152;5.436;2023-04-02T13:09:28;2.13;;;0.60;;
71969;SDS011;59838;52.152;5.436;2023-04-02T13:12:22;2.05;;;0.73;;
71969;SDS011;59838;52.152;5.436;2023-04-02T13:14:54;2.85;;;0.88;;
71969;SDS011;59838;52.152;5.436;2023-04-02T13:25:49;3.08;;;0.60;;
71969;SDS011;59838;52.152;5.436;2023-04-02T13:28:16;1.77;;;0.50;;
71969;SDS011;59838;52.152;5.436;2023-04-02T13:30:42;1.15;;;0.70;;
71969;SDS011;59838;52.152;5.436;2023-04-02T13:33:09;1.83;;;0.50;;
71969;SDS011;59838;52.152;5.436;2023-04-02T13:35:36;2.93;;;0.57;;
71969;SDS011;59838;52.152;5.436;2023-04-02T13:38:02;4.38;;;0.45;;
71969;SDS011;59838;52.152;5.436;2023-04-02T13:40:31;2.60;;;1.05;;
71969;SDS011;59838;52.152;5.436;2023-04-02T13:42:59;3.88;;;0.60;;
71969;SDS011;59838;52.152;5.436;2023-04-02T13:45:26;4.45;;;0.85;;
71969;SDS011;59838;52.152;5.436;2023-04-02T13:47:56;1.43;;;0.60;;
71969;SDS011;59838;52.152;5.436;2023-04-02T13:50:27;1.75;;;0.60;;
71969;SDS011;59838;52.152;5.436;2023-04-02T13:52:56;2.92;;;0.68;;
71969;SDS011;59838;52.152;5.436;2023-04-02T13:55:26;2.65;;;0.50;;
71969;SDS011;59838;52.152;5.436;2023-04-02T13:57:55;4.47;;;1.00;;
71969;SDS011;59838;52.152;5.436;2023-04-02T14:00:22;4.43;;;0.53;;
71969;SDS011;59838;52.152;5.436;2023-04-02T14:02:50;2.90;;;0.68;;
71969;SDS011;59838;52.152;5.436;2023-04-02T14:05:26;1.27;;;0.57;;
71969;SDS011;59838;52.152;5.436;2023-04-02T14:24:08;3.88;;;0.80;;
71969;SDS011;59838;52.152;5.436;2023-04-02T14:29:45;1.00;;;0.50;;
71969;SDS011;59838;52.152;5.436;2023-04-02T14:35:07;2.42;;;0.52;;
71969;SDS011;59838;52.152;5.436;2023-04-02T14:41:21;4.90;;;0.43;;
71969;SDS011;59838;52.152;5.436;2023-04-02T14:44:02;2.00;;;0.60;;
71969;SDS011;59838;52.152;5.436;2023-04-02T14:46:35;1.20;;;0.60;;
71969;SDS011;59838;52.152;5.436;2023-04-02T14:51:53;3.28;;;1.00;;
71969;SDS011;59838;52.152;5.436;2023-04-02T14:54:32;1.20;;;0.50;;
71969;SDS011;59838;52.152;5.436;2023-04-02T15:00:31;4.13;;;0.60;;
71969;SDS011;59838;52.152;5.436;2023-04-02T15:03:17;2.40;;;0.32;;
71969;SDS011;59838;52.152;5.436;2023-04-02T15:05:53;1.45;;;0.63;;
71969;SDS011;59838;52.152;5.436;2023-04-02T15:08:29;1.83;;;0.30;;
71969;SDS011;59838;52.152;5.436;2023-04-02T15:11:03;2.15;;;0.40;;
71969;SDS011;59838;52.152;5.436;2023-04-02T15:13:55;1.75;;;0.50;;
71969;SDS011;59838;52.152;5.436;2023-04-02T15:16:26;2.05;;;0.50;;
71969;SDS011;59838;52.152;5.436;2023-04-02T15:18:57;0.95;;;0.40;;
71969;SDS011;59838;52.152;5.436;2023-04-02T15:21:29;2.17;;;0.30;;
71969;SDS011;59838;52.152;5.436;2023-04-02T15:27:49;1.63;;;0.40;;
71969;SDS011;59838;52.152;5.436;2023-04-02T15:30:23;2.33;;;0.68;;
71969;SDS011;59838;52.152;5.436;2023-04-02T15:32:55;3.70;;;0.70;;
71969;SDS011;59838;52.152;5.436;2023-04-02T15:35:43;2.93;;;0.50;;
71969;SDS011;59838;52.152;5.436;2023-04-02T15:39:19;4.47;;;0.73;;
71969;SDS011;59838;52.152;5.436;2023-04-02T15:41:22;2.70;;;0.65;;
71969;SDS011;59838;52.152;5.436;2023-04-02T15:46:28;1.90;;;0.52;;
71969;SDS011;59838;52.152;5.436;2023-04-02T16:00:41;1.67;;;0.50;;
71969;SDS011;59838;52.152;5.436;2023-04-02T16:03:59;2.07;;;0.53;;
71969;SDS011;59838;52.152;5.436;2023-04-02T16:11:32;1.88;;;0.60;;
71969;SDS011;59838;52.152;5.436;2023-04-02T16:14:01;2.13;;;0.47;;
71969;SDS011;59838;52.152;5.436;2023-04-02T16:16:34;3.80;;;0.50;;
71969;SDS011;59838;52.152;5.436;2023-04-02T16:19:02;3.33;;;0.60;;
71969;SDS011;59838;52.152;5.436;2023-04-02T16:21:44;3.47;;;0.60;;
71969;SDS011;59838;52.152;5.436;2023-04-02T16:24:15;4.28;;;0.50;;
71969;SDS011;59838;52.152;5.436;2023-04-02T16:26:47;2.00;;;0.50;;
71969;SDS011;59838;52.152;5.436;2023-04-02T16:35:17;1.75;;;0.55;;
71969;SDS011;59838;52.152;5.436;2023-04-02T16:40:41;4.03;;;1.15;;
71969;SDS011;59838;52.152;5.436;2023-04-02T16:46:37;2.38;;;0.60;;
71969;SDS011;59838;52.152;5.436;2023-04-02T16:52:20;1.65;;;0.30;;
71969;SDS011;59838;52.152;5.436;2023-04-02T17:05:28;2.22;;;0.40;;
71969;SDS011;59838;52.152;5.436;2023-04-02T17:10:30;1.73;;;0.43;;
71969;SDS011;59838;52.152;5.436;2023-04-02T17:13:36;1.52;;;0.60;;
71969;SDS011;59838;52.152;5.436;2023-04-02T17:18:48;2.60;;;0.57;;
71969;SDS011;59838;52.152;5.436;2023-04-02T17:21:18;2.20;;;0.60;;
71969;SDS011;59838;52.152;5.436;2023-04-02T17:24:05;2.63;;;0.50;;
71969;SDS011;59838;52.152;5.436;2023-04-02T17:26:50;2.00;;;0.60;;
71969;SDS011;59838;52.152;5.436;2023-04-02T17:29:40;2.58;;;0.50;;
71969;SDS011;59838;52.152;5.436;2023-04-02T17:32:21;2.75;;;0.60;;
71969;SDS011;59838;52.152;5.436;2023-04-02T17:34:52;2.88;;;0.55;;
71969;SDS011;59838;52.152;5.436;2023-04-02T17:40:24;3.30;;;0.50;;
71969;SDS011;59838;52.152;5.436;2023-04-02T17:43:16;3.20;;;0.57;;
71969;SDS011;59838;52.152;5.436;2023-04-02T17:45:55;1.02;;;0.30;;
71969;SDS011;59838;52.152;5.436;2023-04-02T17:50:57;1.13;;;0.30;;
71969;SDS011;59838;52.152;5.436;2023-04-02T18:10:12;1.92;;;0.70;;
71969;SDS011;59838;52.152;5.436;2023-04-02T18:12:57;1.25;;;0.60;;
71969;SDS011;59838;52.152;5.436;2023-04-02T18:18:25;4.07;;;0.40;;
71969;SDS011;59838;52.152;5.436;2023-04-02T18:32:19;2.63;;;0.50;;
71969;SDS011;59838;52.152;5.436;2023-04-02T18:35:16;3.33;;;0.40;;
71969;SDS011;59838;52.152;5.436;2023-04-02T18:40:41;5.65;;;0.52;;
71969;SDS011;59838;52.152;5.436;2023-04-02T18:46:20;2.03;;;0.40;;
71969;SDS011;59838;52.152;5.436;2023-04-02T18:51:45;3.00;;;0.40;;
71969;SDS011;59838;52.152;5.436;2023-04-02T18:54:21;1.15;;;0.47;;
71969;SDS011;59838;52.152;5.436;2023-04-02T18:57:00;2.20;;;0.45;;
71969;SDS011;59838;52.152;5.436;2023-04-02T18:59:48;2.50;;;0.50;;
71969;SDS011;59838;52.152;5.436;2023-04-02T19:04:50;1.23;;;0.70;;
71969;SDS011;59838;52.152;5.436;2023-04-02T19:07:24;5.97;;;1.50;;
71969;SDS011;59838;52.152;5.436;2023-04-02T19:09:54;1.88;;;0.50;;
71969;SDS011;59838;52.152;5.436;2023-04-02T19:12:23;4.07;;;0.40;;
71969;SDS011;59838;52.152;5.436;2023-04-02T19:14:49;1.40;;;0.47;;
71969;SDS011;59838;52.152;5.436;2023-04-02T19:20:17;3.08;;;0.40;;
71969;SDS011;59838;52.152;5.436;2023-04-02T19:33:51;3.67;;;0.60;;
71969;SDS011;59838;52.152;5.436;2023-04-02T19:36:35;2.45;;;0.50;;
71969;SDS011;59838;52.152;5.436;2023-04-02T19:42:02;2.30;;;0.50;;
71969;SDS011;59838;52.152;5.436;2023-04-02T19:44:37;11.95;;;0.80;;
71969;SDS011;59838;52.152;5.436;2023-04-02T19:47:09;4.20;;;0.60;;
71969;SDS011;59838;52.152;5.436;2023-04-02T19:49:36;2.88;;;0.88;;
71969;SDS011;59838;52.152;5.436;2023-04-02T19:52:03;5.30;;;0.90;;
71969;SDS011;59838;52.152;5.436;2023-04-02T19:54:29;2.75;;;0.77;;
71969;SDS011;59838;52.152;5.436;2023-04-02T19:56:56;4.00;;;1.00;;
71969;SDS011;59838;52.152;5.436;2023-04-02T19:59:22;2.72;;;0.63;;
71969;SDS011;59838;52.152;5.436;2023-04-02T20:01:49;2.70;;;0.57;;